createdAt,value
2023-05-14T00:02:03.256Z,70.81
2023-05-14T00:04:31.738Z,70.87
2023-05-14T00:07:00.323Z,70.50
2023-05-14T00:09:30.331Z,70.58
2023-05-14T00:11:58.769Z,70.27
2023-05-14T00:14:27.337Z,70.29
2023-05-14T00:16:55.942Z,70.13
2023-05-14T00:19:24.502Z,70.14
2023-05-14T00:21:53.283Z,69.94
2023-05-14T00:24:21.427Z,70.31
2023-05-14T00:26:49.982Z,70.33
2023-05-14T00:29:18.448Z,70.01
2023-05-14T00:31:48.202Z,69.96
2023-05-14T00:34:16.574Z,70.10
2023-05-14T00:36:45.738Z,70.04
2023-05-14T00:39:14.607Z,70.34
2023-05-14T00:41:43.048Z,70.48
2023-05-14T00:44:11.501Z,70.71
2023-05-14T00:46:39.730Z,70.72
2023-05-14T00:49:08.181Z,70.95
2023-05-14T00:51:36.717Z,71.01
2023-05-14T00:54:05.335Z,71.11
2023-05-14T00:56:33.876Z,71.09
2023-05-14T00:59:07.201Z,71.18
2023-05-14T01:01:35.806Z,71.06
2023-05-14T01:04:04.773Z,70.87
2023-05-14T01:07:00.609Z,70.77
2023-05-14T01:10:01.544Z,70.44
2023-05-14T01:13:00.289Z,70.98
2023-05-14T01:15:36.090Z,71.04
2023-05-14T01:18:11.454Z,71.56
2023-05-14T01:20:39.929Z,71.70
2023-05-14T01:23:08.372Z,71.82
2023-05-14T01:25:36.941Z,71.26
2023-05-14T01:28:20.533Z,71.36
2023-05-14T01:30:49.345Z,71.53
2023-05-14T01:33:19.865Z,71.25
2023-05-14T01:35:48.480Z,71.74
2023-05-14T01:38:20.317Z,71.68
2023-05-14T01:40:49.193Z,71.65
2023-05-14T01:43:18.343Z,71.52
2023-05-14T01:45:46.896Z,71.42
2023-05-14T01:48:16.581Z,71.51
2023-05-14T01:50:44.712Z,71.90
2023-05-14T01:53:12.832Z,71.34
2023-05-14T01:55:41.343Z,71.54
2023-05-14T01:58:09.836Z,71.58
2023-05-14T02:00:38.549Z,71.86
2023-05-14T02:03:08.622Z,72.07
2023-05-14T02:05:37.087Z,71.86
2023-05-14T02:08:05.805Z,72.14
2023-05-14T02:10:33.871Z,72.48
2023-05-14T02:13:02.004Z,72.25
2023-05-14T02:15:30.865Z,72.17
2023-05-14T02:17:58.945Z,72.49
2023-05-14T02:20:27.450Z,72.56
2023-05-14T02:22:56.125Z,72.61
2023-05-14T02:25:24.357Z,72.82
2023-05-14T02:27:52.815Z,72.88
2023-05-14T02:30:22.697Z,72.73
2023-05-14T02:32:51.580Z,72.68
2023-05-14T02:35:20.127Z,73.17
2023-05-14T02:37:48.747Z,73.22
2023-05-14T02:40:16.956Z,73.11
2023-05-14T02:42:45.451Z,73.44
2023-05-14T02:45:14.132Z,73.54
2023-05-14T02:47:43.635Z,73.54
2023-05-14T02:50:12.099Z,73.64
2023-05-14T02:52:41.065Z,73.79
2023-05-14T02:55:09.838Z,73.92
2023-05-14T02:57:38.266Z,73.77
2023-05-14T03:00:07.614Z,73.97
2023-05-14T03:02:36.589Z,73.77
2023-05-14T03:05:05.835Z,74.17
2023-05-14T03:07:33.921Z,74.16
2023-05-14T03:10:02.540Z,74.55
2023-05-14T03:12:31.188Z,74.30
2023-05-14T03:14:59.682Z,74.16
2023-05-14T03:17:27.981Z,74.55
2023-05-14T03:19:56.157Z,74.71
2023-05-14T03:22:24.621Z,74.82
2023-05-14T03:24:53.061Z,74.84
2023-05-14T03:27:21.517Z,75.09
2023-05-14T03:29:50.078Z,75.12
2023-05-14T03:32:19.786Z,75.31
2023-05-14T03:34:48.364Z,75.60
2023-05-14T03:37:16.516Z,75.69
2023-05-14T03:39:44.769Z,75.92
2023-05-14T03:42:13.263Z,75.91
2023-05-14T03:44:42.088Z,76.04
2023-05-14T03:47:10.398Z,76.12
2023-05-14T03:49:39.644Z,76.22
2023-05-14T03:52:08.103Z,76.10
2023-05-14T03:54:36.577Z,76.34
2023-05-14T03:57:05.362Z,76.32
2023-05-14T03:59:33.895Z,75.88
2023-05-14T04:02:02.387Z,76.04
2023-05-14T04:04:30.923Z,76.27
2023-05-14T04:06:59.419Z,76.37
2023-05-14T04:09:27.882Z,76.17
2023-05-14T04:11:56.003Z,76.24
2023-05-14T04:14:24.538Z,76.15
2023-05-14T04:16:53.092Z,75.94
2023-05-14T04:19:21.580Z,76.37
2023-05-14T04:21:50.112Z,75.96
2023-05-14T04:24:18.753Z,75.77
2023-05-14T04:26:47.242Z,76.04
2023-05-14T04:29:15.739Z,76.27
2023-05-14T04:31:43.896Z,75.82
2023-05-14T04:34:12.456Z,75.99
2023-05-14T04:36:41.448Z,76.01
2023-05-14T04:39:12.367Z,76.36
2023-05-14T04:41:40.963Z,76.20
2023-05-14T04:44:09.434Z,75.90
2023-05-14T04:46:37.727Z,75.56
2023-05-14T04:49:06.158Z,75.51
2023-05-14T04:51:34.731Z,75.48
2023-05-14T04:54:08.446Z,74.65
2023-05-14T04:56:39.251Z,74.87
2023-05-14T04:59:21.342Z,74.11
2023-05-14T05:01:50.418Z,74.46
2023-05-14T05:04:19.111Z,73.96
2023-05-14T05:06:47.692Z,73.93
2023-05-14T05:09:16.375Z,73.58
2023-05-14T05:11:45.016Z,73.17
2023-05-14T05:14:13.694Z,72.08
2023-05-14T05:16:42.161Z,71.42
2023-05-14T05:19:10.726Z,71.51
2023-05-14T05:21:40.776Z,71.24
2023-05-14T05:24:09.742Z,71.27
2023-05-14T05:26:38.218Z,70.77
2023-05-14T05:29:07.251Z,70.70
2023-05-14T05:31:36.898Z,70.53
2023-05-14T05:34:06.019Z,69.99
2023-05-14T05:36:34.644Z,70.55
2023-05-14T05:39:03.429Z,68.74
2023-05-14T05:41:31.883Z,68.14
2023-05-14T05:44:00.397Z,67.24
2023-05-14T05:46:28.892Z,66.70
2023-05-14T05:48:57.803Z,66.64
2023-05-14T05:51:26.329Z,65.24
2023-05-14T05:53:54.763Z,65.15
2023-05-14T05:56:25.712Z,64.54
2023-05-14T05:58:55.356Z,63.40
2023-05-14T06:01:24.077Z,61.68
2023-05-14T06:03:52.570Z,59.64
2023-05-14T06:06:21.799Z,59.13
2023-05-14T06:08:50.453Z,57.93
2023-05-14T06:11:18.944Z,57.14
2023-05-14T06:13:47.574Z,55.71
2023-05-14T06:16:16.109Z,54.96
2023-05-14T06:18:44.680Z,54.63
2023-05-14T06:21:13.197Z,54.34
2023-05-14T06:23:42.314Z,54.12
2023-05-14T06:26:10.754Z,50.60
2023-05-14T06:28:39.233Z,50.28
2023-05-14T06:31:10.711Z,50.31
2023-05-14T06:33:39.222Z,50.04
2023-05-14T06:36:08.930Z,49.76
2023-05-14T06:38:37.539Z,49.77
2023-05-14T06:41:06.100Z,49.99
2023-05-14T06:43:34.633Z,48.29
2023-05-14T06:46:03.206Z,48.50
2023-05-14T06:48:32.155Z,49.81
2023-05-14T06:51:00.632Z,49.09
2023-05-14T06:53:29.266Z,47.82
2023-05-14T06:55:57.750Z,47.33
2023-05-14T06:58:26.500Z,47.10
2023-05-14T07:00:54.960Z,48.67
2023-05-14T07:03:23.426Z,48.49
2023-05-14T07:05:52.251Z,47.37
2023-05-14T07:08:20.765Z,46.48
2023-05-14T07:10:49.204Z,46.80
2023-05-14T07:13:19.291Z,45.81
2023-05-14T07:15:47.838Z,46.70
2023-05-14T07:18:16.330Z,46.79
2023-05-14T07:20:44.780Z,45.74
2023-05-14T07:23:13.178Z,45.63
2023-05-14T07:25:42.154Z,45.37
2023-05-14T07:28:10.577Z,45.35
2023-05-14T07:30:42.134Z,42.67
2023-05-14T07:33:10.763Z,42.96
2023-05-14T07:35:39.492Z,43.75
2023-05-14T07:38:08.148Z,43.08
2023-05-14T07:40:36.576Z,43.18
2023-05-14T07:43:04.953Z,43.19
2023-05-14T07:45:38.240Z,43.58
2023-05-14T07:48:07.207Z,43.80
2023-05-14T07:50:35.678Z,43.59
2023-05-14T07:53:04.384Z,44.73
2023-05-14T07:55:32.928Z,45.23
2023-05-14T07:58:01.550Z,44.93
2023-05-14T08:00:30.134Z,43.63
2023-05-14T08:02:58.850Z,43.16
2023-05-14T08:05:27.659Z,43.54
2023-05-14T08:07:56.169Z,43.80
2023-05-14T08:10:25.028Z,43.98
2023-05-14T08:12:53.689Z,41.22
2023-05-14T08:15:22.395Z,45.52
2023-05-14T08:17:51.047Z,44.27
2023-05-14T08:20:19.865Z,41.38
2023-05-14T08:22:48.296Z,42.22
2023-05-14T08:25:16.772Z,43.01
2023-05-14T08:27:45.374Z,43.00
2023-05-14T08:30:14.636Z,42.60
2023-05-14T08:32:43.431Z,43.43
2023-05-14T08:35:13.306Z,44.03
2023-05-14T08:37:42.178Z,44.40
2023-05-14T08:40:11.210Z,42.28
2023-05-14T08:42:44.857Z,41.59
2023-05-14T08:45:26.130Z,42.33
2023-05-14T08:47:58.414Z,42.43
2023-05-14T08:50:27.680Z,44.03
2023-05-14T08:52:56.448Z,44.31
2023-05-14T08:55:31.920Z,43.86
2023-05-14T08:58:01.263Z,43.84
2023-05-14T09:00:29.903Z,45.78
2023-05-14T09:02:58.926Z,45.03
2023-05-14T09:05:28.553Z,44.49
2023-05-14T09:07:57.467Z,43.69
2023-05-14T09:10:26.655Z,43.54
2023-05-14T09:12:55.671Z,44.32
2023-05-14T09:15:24.444Z,45.62
2023-05-14T09:17:53.430Z,47.40
2023-05-14T09:20:22.878Z,47.59
2023-05-14T09:22:55.491Z,47.30
2023-05-14T09:25:28.780Z,47.10
2023-05-14T09:27:58.988Z,47.92
2023-05-14T09:30:30.783Z,47.39
2023-05-14T09:32:59.308Z,47.66
2023-05-14T09:35:27.829Z,48.50
2023-05-14T09:37:56.720Z,47.77
2023-05-14T09:40:25.574Z,47.27
2023-05-14T09:42:54.472Z,46.46
2023-05-14T09:45:22.975Z,45.89
2023-05-14T09:47:53.053Z,45.32
2023-05-14T09:50:21.701Z,43.70
2023-05-14T09:52:50.728Z,43.74
2023-05-14T09:55:19.363Z,43.13
2023-05-14T09:57:48.072Z,42.05
2023-05-14T10:00:17.161Z,42.26
2023-05-14T10:02:47.155Z,41.72
2023-05-14T10:05:16.305Z,42.00
2023-05-14T10:07:49.551Z,42.43
2023-05-14T10:10:21.538Z,44.34
2023-05-14T10:13:16.962Z,42.08
2023-05-14T10:16:23.269Z,41.67
2023-05-14T10:18:57.295Z,42.20
2023-05-14T10:21:28.853Z,41.80
2023-05-14T10:23:57.513Z,41.69
2023-05-14T10:26:26.361Z,41.46
2023-05-14T10:28:56.098Z,40.38
2023-05-14T10:31:54.780Z,41.49
2023-05-14T10:34:44.387Z,42.26
2023-05-14T10:37:19.845Z,42.85
2023-05-14T10:40:06.243Z,43.16
2023-05-14T10:42:40.778Z,43.21
2023-05-14T10:45:20.073Z,43.28
2023-05-14T10:47:51.503Z,43.15
2023-05-14T10:50:20.508Z,42.83
2023-05-14T10:52:48.964Z,44.09
2023-05-14T10:55:18.521Z,42.59
2023-05-14T10:57:48.356Z,42.19
2023-05-14T11:00:17.400Z,41.53
2023-05-14T11:02:46.899Z,40.68
2023-05-14T11:05:18.663Z,37.35
2023-05-14T11:07:50.087Z,42.01
2023-05-14T11:10:21.436Z,42.47
2023-05-14T11:12:52.893Z,43.10
2023-05-14T11:15:26.627Z,42.74
2023-05-14T11:17:55.537Z,43.09
2023-05-14T11:20:24.319Z,42.22
2023-05-14T11:22:52.925Z,39.79
2023-05-14T11:25:22.877Z,40.06
2023-05-14T11:27:51.872Z,41.10
2023-05-14T11:30:21.692Z,41.78
2023-05-14T11:32:51.929Z,40.98
2023-05-14T11:35:21.153Z,42.05
2023-05-14T11:37:53.263Z,42.12
2023-05-14T11:40:22.294Z,40.97
2023-05-14T11:42:53.414Z,40.80
2023-05-14T11:45:29.921Z,40.92
2023-05-14T11:47:58.757Z,40.44
2023-05-14T11:50:27.507Z,40.83
2023-05-14T11:52:59.069Z,43.49
2023-05-14T11:55:27.540Z,44.45
2023-05-14T11:57:56.205Z,44.58
2023-05-14T12:00:25.165Z,44.99
2023-05-14T12:02:54.144Z,45.08
2023-05-14T12:05:22.911Z,45.16
2023-05-14T12:07:52.139Z,44.83
2023-05-14T12:10:20.699Z,44.53
2023-05-14T12:12:50.237Z,44.88
2023-05-14T12:15:18.690Z,44.66
2023-05-14T12:17:53.348Z,44.09
2023-05-14T12:20:22.162Z,44.56
2023-05-14T12:22:50.743Z,45.71
2023-05-14T12:25:19.321Z,45.39
2023-05-14T12:27:53.565Z,46.75
2023-05-14T12:30:22.399Z,47.55
2023-05-14T12:32:52.880Z,48.71
2023-05-14T12:35:23.383Z,48.91
2023-05-14T12:37:52.215Z,49.10
2023-05-14T12:40:20.759Z,49.30
2023-05-14T12:42:49.337Z,49.08
2023-05-14T12:45:17.834Z,49.13
2023-05-14T12:47:46.779Z,48.39
2023-05-14T12:50:15.309Z,48.02
2023-05-14T12:52:44.020Z,48.11
2023-05-14T12:55:13.106Z,48.45
2023-05-14T12:57:41.748Z,48.86
2023-05-14T13:00:13.923Z,48.49
2023-05-14T13:02:44.086Z,48.98
2023-05-14T13:05:13.365Z,48.24
2023-05-14T13:07:42.157Z,48.91
2023-05-14T13:10:11.906Z,49.29
2023-05-14T13:12:40.976Z,45.25
2023-05-14T13:15:10.289Z,45.08
2023-05-14T13:17:39.186Z,44.59
2023-05-14T13:20:08.527Z,44.39
2023-05-14T13:22:37.013Z,45.06
2023-05-14T13:25:06.079Z,45.55
2023-05-14T13:27:35.874Z,45.09
2023-05-14T13:30:05.868Z,44.58
2023-05-14T13:32:34.414Z,44.85
2023-05-14T13:35:03.273Z,45.20
2023-05-14T13:37:31.741Z,45.10
2023-05-14T13:40:00.230Z,45.52
2023-05-14T13:42:28.889Z,45.10
2023-05-14T13:44:58.671Z,45.01
2023-05-14T13:47:27.579Z,44.57
2023-05-14T13:49:56.639Z,44.82
2023-05-14T13:52:25.121Z,44.66
2023-05-14T13:54:56.551Z,45.62
2023-05-14T13:57:25.304Z,45.56
2023-05-14T13:59:53.834Z,45.05
2023-05-14T14:02:22.399Z,45.98
2023-05-14T14:04:50.853Z,45.94
2023-05-14T14:07:19.442Z,46.27
2023-05-14T14:09:48.156Z,46.70
2023-05-14T14:12:16.812Z,47.44
2023-05-14T14:14:45.209Z,46.54
2023-05-14T14:17:13.814Z,46.72
2023-05-14T14:19:42.345Z,46.66
2023-05-14T14:22:12.611Z,45.78
2023-05-14T14:24:41.103Z,45.90
2023-05-14T14:27:10.138Z,44.96
2023-05-14T14:29:38.613Z,44.67
2023-05-14T14:32:07.582Z,44.67
2023-05-14T14:34:36.279Z,44.23
2023-05-14T14:37:05.001Z,45.45
2023-05-14T14:39:33.392Z,46.25
2023-05-14T14:42:01.974Z,45.16
2023-05-14T14:44:30.477Z,46.49
2023-05-14T14:46:58.943Z,46.31
2023-05-14T14:49:27.811Z,45.22
2023-05-14T14:51:56.509Z,45.77
2023-05-14T14:54:25.074Z,45.54
2023-05-14T14:56:53.735Z,45.54
2023-05-14T14:59:27.900Z,46.45
2023-05-14T15:01:56.730Z,45.94
2023-05-14T15:04:25.541Z,46.87
2023-05-14T15:06:54.045Z,46.83
2023-05-14T15:09:22.446Z,46.89
2023-05-14T15:11:51.039Z,46.73
2023-05-14T15:14:19.499Z,46.62
2023-05-14T15:16:50.947Z,46.98
2023-05-14T15:19:19.680Z,47.29
2023-05-14T15:21:48.462Z,47.99
2023-05-14T15:24:16.926Z,48.12
2023-05-14T15:26:45.922Z,47.90
2023-05-14T15:29:14.390Z,48.14
2023-05-14T15:31:42.964Z,47.87
2023-05-14T15:34:11.425Z,48.41
2023-05-14T15:36:40.128Z,48.36
2023-05-14T15:39:10.444Z,48.31
2023-05-14T15:41:39.670Z,47.66
2023-05-14T15:44:08.251Z,48.22
2023-05-14T15:46:38.009Z,48.23
2023-05-14T15:49:06.712Z,48.76
2023-05-14T15:51:35.867Z,49.18
2023-05-14T15:54:04.378Z,48.57
2023-05-14T15:56:33.079Z,48.80
2023-05-14T15:59:01.611Z,49.05
2023-05-14T16:01:30.025Z,49.52
2023-05-14T16:03:58.416Z,49.46
2023-05-14T16:06:27.383Z,50.12
2023-05-14T16:08:56.141Z,49.46
2023-05-14T16:11:26.455Z,49.64
2023-05-14T16:13:54.958Z,49.34
2023-05-14T16:16:23.793Z,49.58
2023-05-14T16:18:52.374Z,50.30
2023-05-14T16:21:21.038Z,50.83
2023-05-14T16:23:49.469Z,50.70
2023-05-14T16:26:18.377Z,50.86
2023-05-14T16:28:46.855Z,50.31
2023-05-14T16:31:15.923Z,50.76
2023-05-14T16:33:44.375Z,50.54
2023-05-14T16:36:12.909Z,49.59
2023-05-14T16:38:52.314Z,49.33
2023-05-14T16:41:30.039Z,49.23
2023-05-14T16:43:58.543Z,49.23
2023-05-14T16:46:28.319Z,49.43
2023-05-14T16:49:00.324Z,49.47
2023-05-14T16:51:28.753Z,48.98
2023-05-14T16:53:57.326Z,48.65
2023-05-14T16:56:26.569Z,47.85
2023-05-14T16:58:55.309Z,48.10
2023-05-14T17:01:23.859Z,47.98
2023-05-14T17:03:52.446Z,47.82
2023-05-14T17:06:20.918Z,47.18
2023-05-14T17:08:49.375Z,46.59
2023-05-14T17:11:17.790Z,47.27
2023-05-14T17:13:46.300Z,47.29
2023-05-14T17:16:14.736Z,47.64
2023-05-14T17:18:43.694Z,47.66
2023-05-14T17:21:12.262Z,48.71
2023-05-14T17:23:42.367Z,47.96
2023-05-14T17:26:12.073Z,48.00
2023-05-14T17:28:41.193Z,48.67
2023-05-14T17:31:09.702Z,50.25
2023-05-14T17:33:38.279Z,49.49
2023-05-14T17:36:07.120Z,51.17
2023-05-14T17:38:39.144Z,52.51
2023-05-14T17:41:07.550Z,52.87
2023-05-14T17:43:36.014Z,54.38
2023-05-14T17:46:04.589Z,55.37
2023-05-14T17:48:33.300Z,55.54
2023-05-14T17:51:01.931Z,56.10
2023-05-14T17:53:30.385Z,54.80
2023-05-14T17:55:58.801Z,54.83
2023-05-14T17:58:27.577Z,55.76
2023-05-14T18:01:01.467Z,55.41
2023-05-14T18:03:30.464Z,56.43
2023-05-14T18:06:00.275Z,57.12
2023-05-14T18:08:28.777Z,56.51
2023-05-14T18:10:58.125Z,57.60
2023-05-14T18:13:26.745Z,57.82
2023-05-14T18:15:56.688Z,58.93
2023-05-14T18:18:25.180Z,58.72
2023-05-14T18:20:54.132Z,58.98
2023-05-14T18:23:22.837Z,59.58
2023-05-14T18:25:51.583Z,60.26
2023-05-14T18:28:21.638Z,60.72
2023-05-14T18:30:50.426Z,61.26
2023-05-14T18:33:19.328Z,61.61
2023-05-14T18:35:47.929Z,61.92
2023-05-14T18:38:18.084Z,62.40
2023-05-14T18:40:47.002Z,63.42
2023-05-14T18:43:16.857Z,63.84
2023-05-14T18:45:46.266Z,63.94
2023-05-14T18:48:17.561Z,64.29
2023-05-14T18:50:46.092Z,64.94
2023-05-14T18:53:15.232Z,64.83
2023-05-14T18:55:43.780Z,64.88
2023-05-14T18:58:12.445Z,65.72
2023-05-14T19:00:41.129Z,66.68
2023-05-14T19:03:09.976Z,66.90
2023-05-14T19:05:39.143Z,67.42
2023-05-14T19:08:12.242Z,67.96
2023-05-14T19:10:40.906Z,67.83
2023-05-14T19:13:09.496Z,68.23
2023-05-14T19:15:38.300Z,68.23
2023-05-14T19:18:06.904Z,68.96
2023-05-14T19:20:35.324Z,69.23
2023-05-14T19:23:05.876Z,69.66
2023-05-14T19:25:36.721Z,69.88
2023-05-14T19:28:05.971Z,70.08
2023-05-14T19:30:34.860Z,70.54
2023-05-14T19:33:04.549Z,70.49
2023-05-14T19:35:33.392Z,70.67
2023-05-14T19:38:01.904Z,70.62
2023-05-14T19:40:30.568Z,71.00
2023-05-14T19:42:59.761Z,71.33
2023-05-14T19:45:28.564Z,71.59
2023-05-14T19:47:57.212Z,71.84
2023-05-14T19:50:26.321Z,71.89
2023-05-14T19:52:54.839Z,71.88
2023-05-14T19:55:23.463Z,71.96
2023-05-14T19:57:52.676Z,72.35
2023-05-14T20:00:22.408Z,73.00
2023-05-14T20:02:50.948Z,73.35
2023-05-14T20:05:29.661Z,73.49
2023-05-14T20:07:58.116Z,73.73
2023-05-14T20:10:26.985Z,74.05
2023-05-14T20:12:55.747Z,74.58
2023-05-14T20:15:27.169Z,74.49
2023-05-14T20:17:55.710Z,74.63
2023-05-14T20:20:27.896Z,74.97
2023-05-14T20:22:58.264Z,75.20
2023-05-14T20:25:28.548Z,75.63
2023-05-14T20:27:57.368Z,75.82
2023-05-14T20:30:26.212Z,76.20
2023-05-14T20:32:55.192Z,76.56
2023-05-14T20:35:26.894Z,76.90
2023-05-14T20:37:56.287Z,77.52
2023-05-14T20:40:24.939Z,78.26
2023-05-14T20:42:53.941Z,78.53
2023-05-14T20:45:22.648Z,78.96
2023-05-14T20:47:51.247Z,79.44
2023-05-14T20:50:19.938Z,80.29
2023-05-14T20:52:48.348Z,80.60
2023-05-14T20:55:25.442Z,80.86
2023-05-14T20:57:54.282Z,81.39
2023-05-14T21:00:22.832Z,81.67
2023-05-14T21:02:54.626Z,82.04
2023-05-14T21:05:23.664Z,82.47
2023-05-14T21:07:52.426Z,82.49
2023-05-14T21:10:21.052Z,83.07
2023-05-14T21:12:49.666Z,83.53
2023-05-14T21:15:30.582Z,83.80
2023-05-14T21:17:59.167Z,84.01
2023-05-14T21:20:27.891Z,84.42
2023-05-14T21:23:01.106Z,84.71
2023-05-14T21:25:29.731Z,85.22
2023-05-14T21:27:58.185Z,85.54
2023-05-14T21:30:26.794Z,85.93
2023-05-14T21:32:55.579Z,86.60
2023-05-14T21:35:24.393Z,86.86
2023-05-14T21:37:53.205Z,87.00
2023-05-14T21:40:21.708Z,87.26
2023-05-14T21:42:51.040Z,87.55
2023-05-14T21:45:20.758Z,88.03
2023-05-14T21:47:50.790Z,87.86
2023-05-14T21:50:19.701Z,88.35
2023-05-14T21:52:50.469Z,88.36
2023-05-14T21:55:18.932Z,88.45
2023-05-14T21:57:47.425Z,88.86
2023-05-14T22:00:23.294Z,88.93
2023-05-14T22:02:53.837Z,89.25
2023-05-14T22:05:23.352Z,89.74
2023-05-14T22:07:52.442Z,89.88
2023-05-14T22:10:23.904Z,90.13
2023-05-14T22:12:52.453Z,90.32
2023-05-14T22:15:20.954Z,90.34
2023-05-14T22:17:49.682Z,90.61
2023-05-14T22:20:18.130Z,90.89
2023-05-14T22:22:46.737Z,90.66
2023-05-14T22:25:14.982Z,90.79
2023-05-14T22:27:43.136Z,91.12
2023-05-14T22:30:12.186Z,91.29
2023-05-14T22:32:40.675Z,91.50
2023-05-14T22:35:09.485Z,91.69
2023-05-14T22:37:37.736Z,92.01
2023-05-14T22:40:07.489Z,91.95
2023-05-14T22:42:35.798Z,92.18
2023-05-14T22:45:04.080Z,92.21
2023-05-14T22:47:32.694Z,92.20
2023-05-14T22:50:01.314Z,91.97
2023-05-14T22:52:30.085Z,91.46
2023-05-14T22:54:58.755Z,91.04
2023-05-14T22:57:27.368Z,91.26
2023-05-14T22:59:55.786Z,91.66
2023-05-14T23:02:24.087Z,92.02
2023-05-14T23:04:52.955Z,92.06
2023-05-14T23:07:21.527Z,91.94
2023-05-14T23:09:49.716Z,91.73
2023-05-14T23:12:18.775Z,91.73
2023-05-14T23:14:47.272Z,91.78
2023-05-14T23:17:15.771Z,92.36
2023-05-14T23:19:44.316Z,92.42
2023-05-14T23:22:12.959Z,92.73
2023-05-14T23:24:41.508Z,92.90
2023-05-14T23:27:10.154Z,92.90
2023-05-14T23:29:42.268Z,93.49
2023-05-14T23:32:10.784Z,93.68
2023-05-14T23:34:39.308Z,93.82
2023-05-14T23:37:07.999Z,93.94
2023-05-14T23:39:36.483Z,93.94
2023-05-14T23:42:04.970Z,94.32
2023-05-14T23:44:33.790Z,94.52
2023-05-14T23:47:02.708Z,94.63
2023-05-14T23:49:31.193Z,94.80
2023-05-14T23:52:00.176Z,95.02
2023-05-14T23:54:28.451Z,95.29
2023-05-14T23:56:56.667Z,95.39
2023-05-14T23:59:26.567Z,95.53
